createdAt,value
2022-10-14T00:03:05.515Z,10.75
2022-10-14T00:08:12.382Z,14.26
2022-10-14T00:13:19.333Z,14.00
2022-10-14T00:18:26.234Z,11.36
2022-10-14T00:23:33.340Z,10.16
2022-10-14T00:28:40.272Z,11.76
2022-10-14T00:33:47.220Z,15.32
2022-10-14T00:38:54.117Z,15.29
2022-10-14T00:44:01.127Z,17.26
2022-10-14T00:49:08.049Z,15.67
2022-10-14T00:54:15.059Z,12.18
2022-10-14T00:59:21.992Z,14.35
2022-10-14T01:04:29.061Z,18.16
2022-10-14T01:09:35.980Z,14.89
2022-10-14T01:14:43.051Z,24.13
2022-10-14T01:19:49.983Z,15.25
2022-10-14T01:24:57.032Z,26.61
2022-10-14T01:30:03.902Z,17.77
2022-10-14T01:35:10.771Z,19.94
2022-10-14T01:40:17.849Z,14.77
2022-10-14T01:45:24.738Z,16.36
2022-10-14T01:50:31.650Z,14.28
2022-10-14T01:55:38.560Z,14.48
2022-10-14T02:00:45.694Z,16.74
2022-10-14T02:05:52.624Z,15.52
2022-10-14T02:11:02.159Z,15.58
2022-10-14T02:16:06.155Z,21.48
2022-10-14T02:21:13.033Z,17.83
2022-10-14T02:26:20.101Z,16.37
2022-10-14T02:31:26.991Z,17.75
2022-10-14T02:36:34.064Z,19.02
2022-10-14T02:41:41.063Z,20.71
2022-10-14T02:46:48.138Z,16.24
2022-10-14T02:51:55.089Z,21.72
2022-10-14T02:57:02.124Z,18.47
2022-10-14T03:02:09.103Z,21.50
2022-10-14T03:07:16.163Z,20.05
2022-10-14T03:12:23.383Z,37.83
2022-10-14T03:17:29.541Z,24.25
2022-10-14T03:22:36.469Z,20.97
2022-10-14T03:27:43.409Z,14.28
2022-10-14T03:32:50.345Z,17.63
2022-10-14T03:37:57.431Z,14.23
2022-10-14T03:43:04.330Z,18.00
2022-10-14T03:48:11.326Z,33.08
2022-10-14T03:53:18.297Z,20.91
2022-10-14T03:58:25.302Z,19.25
2022-10-14T04:03:32.145Z,20.59
2022-10-14T04:08:39.122Z,19.50
2022-10-14T04:13:46.055Z,31.18
2022-10-14T04:18:53.038Z,24.29
2022-10-14T04:24:02.691Z,17.35
2022-10-14T04:29:06.591Z,13.64
2022-10-14T04:34:13.477Z,12.18
2022-10-14T04:39:20.612Z,13.93
2022-10-14T04:44:27.482Z,11.88
2022-10-14T04:49:34.490Z,11.14
2022-10-14T04:54:41.398Z,14.58
2022-10-14T04:59:48.407Z,11.53
2022-10-14T05:04:55.376Z,12.12
2022-10-14T05:10:02.401Z,12.83
2022-10-14T05:15:09.280Z,12.33
2022-10-14T05:20:16.162Z,18.85
2022-10-14T05:25:23.147Z,19.71
2022-10-14T05:30:34.375Z,18.11
2022-10-14T05:35:57.688Z,17.08
2022-10-14T05:40:43.047Z,18.23
2022-10-14T05:45:50.133Z,21.35
2022-10-14T05:50:57.032Z,20.40
2022-10-14T05:56:03.968Z,23.51
2022-10-14T06:01:10.835Z,23.48
2022-10-14T06:06:18.091Z,25.74
2022-10-14T06:11:24.953Z,20.45
2022-10-14T06:16:32.044Z,24.08
2022-10-14T06:21:38.966Z,24.83
2022-10-14T06:26:45.997Z,16.31
2022-10-14T06:31:52.870Z,13.84
2022-10-14T06:37:02.427Z,13.32
2022-10-14T06:42:09.550Z,12.20
2022-10-14T06:47:13.115Z,14.63
2022-10-14T06:52:20.228Z,11.44
2022-10-14T06:57:27.072Z,15.18
2022-10-14T07:02:33.963Z,13.66
2022-10-14T07:07:40.930Z,16.05
2022-10-14T07:12:47.891Z,10.85
2022-10-14T07:17:54.955Z,10.51
2022-10-14T07:23:01.835Z,9.65
2022-10-14T07:28:08.811Z,9.00
2022-10-14T07:33:15.711Z,7.88
2022-10-14T07:38:22.709Z,8.36
2022-10-14T07:43:29.648Z,11.59
2022-10-14T07:53:43.223Z,10.53
2022-10-14T07:58:50.321Z,10.51
2022-10-14T08:03:57.318Z,7.36
2022-10-14T08:09:04.360Z,8.98
2022-10-14T08:14:11.281Z,8.29
2022-10-14T08:19:18.332Z,8.44
2022-10-14T08:24:25.242Z,11.79
2022-10-14T08:29:32.251Z,7.91
2022-10-14T08:34:39.187Z,7.65
2022-10-14T08:39:46.184Z,6.75
2022-10-14T08:44:53.084Z,7.29
2022-10-14T08:50:00.147Z,7.03
2022-10-14T08:55:07.107Z,8.38
2022-10-14T09:00:14.170Z,5.30
2022-10-14T09:05:21.115Z,7.17
2022-10-14T09:10:28.176Z,8.65
2022-10-14T09:15:35.145Z,7.63
2022-10-14T09:20:42.216Z,10.29
2022-10-14T09:25:49.109Z,5.40
2022-10-14T09:30:56.050Z,6.76
2022-10-14T09:36:02.996Z,8.19
2022-10-14T09:41:09.897Z,10.15
2022-10-14T09:46:16.935Z,6.54
2022-10-14T09:51:23.806Z,5.39
2022-10-14T09:56:30.888Z,11.16
2022-10-14T10:01:37.792Z,10.68
2022-10-14T10:06:44.747Z,8.96
2022-10-14T10:11:51.660Z,11.83
2022-10-14T10:16:58.646Z,11.22
2022-10-14T10:22:05.550Z,11.32
2022-10-14T10:27:12.588Z,9.15
2022-10-14T10:32:19.895Z,7.28
2022-10-14T10:37:26.243Z,9.10
2022-10-14T10:42:33.169Z,13.82
2022-10-14T10:47:40.292Z,10.64
2022-10-14T10:52:47.165Z,5.74
2022-10-14T10:57:54.116Z,7.97
2022-10-14T11:03:01.167Z,9.55
2022-10-14T11:08:08.327Z,8.11
2022-10-14T11:13:15.219Z,11.07
2022-10-14T11:18:22.310Z,7.75
2022-10-14T11:23:29.233Z,6.78
2022-10-14T11:28:36.406Z,5.83
2022-10-14T11:33:43.219Z,6.89
2022-10-14T11:38:50.118Z,4.49
2022-10-14T11:43:57.116Z,4.10
2022-10-14T11:49:04.189Z,4.03
2022-10-14T11:54:11.041Z,3.80
2022-10-14T11:59:18.101Z,4.23
2022-10-14T12:04:25.050Z,3.70
2022-10-14T12:09:32.009Z,2.43
2022-10-14T12:14:38.885Z,5.49
2022-10-14T12:19:45.811Z,6.94
2022-10-14T12:24:52.742Z,4.00
2022-10-14T12:29:59.800Z,3.40
2022-10-14T12:35:06.677Z,3.23
2022-10-14T12:40:13.727Z,3.36
2022-10-14T12:45:20.641Z,4.28
2022-10-14T12:50:27.643Z,3.86
2022-10-14T12:55:34.566Z,4.48
2022-10-14T13:00:41.672Z,4.95
2022-10-14T13:05:48.549Z,6.30
2022-10-14T13:10:55.686Z,5.76
2022-10-14T13:16:02.673Z,4.51
2022-10-14T13:21:09.763Z,8.35
2022-10-14T13:26:16.656Z,3.87
2022-10-14T13:31:23.674Z,5.26
2022-10-14T13:36:30.551Z,7.82
2022-10-14T13:41:37.472Z,5.64
2022-10-14T13:46:44.482Z,6.83
2022-10-14T13:51:51.430Z,8.26
2022-10-14T13:57:12.615Z,6.85
2022-10-14T14:02:04.755Z,9.16
2022-10-14T14:12:18.252Z,8.73
2022-10-14T14:17:25.507Z,6.87
2022-10-14T14:22:32.191Z,11.98
2022-10-14T14:27:39.127Z,5.19
2022-10-14T14:32:46.090Z,4.98
2022-10-14T14:37:56.090Z,7.18
2022-10-14T14:42:59.589Z,4.24
2022-10-14T14:48:06.637Z,5.13
2022-10-14T14:53:13.522Z,4.71
2022-10-14T14:58:20.626Z,6.59
2022-10-14T15:03:27.506Z,7.53
2022-10-14T15:08:34.568Z,6.64
2022-10-14T15:13:41.484Z,10.63
2022-10-14T15:18:48.581Z,7.19
2022-10-14T15:23:55.469Z,4.53
2022-10-14T15:29:02.401Z,6.40
2022-10-14T15:34:09.568Z,5.06
2022-10-14T15:39:16.507Z,7.68
2022-10-14T15:44:23.419Z,5.93
2022-10-14T15:49:30.451Z,6.62
2022-10-14T15:54:37.382Z,6.94
2022-10-14T15:59:44.323Z,8.43
2022-10-14T16:05:18.286Z,7.37
2022-10-14T16:09:57.776Z,7.91
2022-10-14T16:20:11.378Z,3.95
2022-10-14T16:25:18.356Z,6.97
2022-10-14T16:30:25.816Z,6.88
2022-10-14T16:35:32.775Z,6.60
2022-10-14T16:40:39.903Z,7.55
2022-10-14T16:45:46.853Z,5.63
2022-10-14T16:50:53.913Z,10.12
2022-10-14T16:56:00.866Z,8.09
2022-10-14T17:01:10.045Z,6.81
2022-10-14T17:06:14.339Z,5.33
2022-10-14T17:11:21.509Z,7.33
2022-10-14T17:16:28.420Z,5.71
2022-10-14T17:21:35.524Z,7.51
2022-10-14T17:26:42.398Z,9.14
2022-10-14T17:31:49.438Z,7.15
2022-10-14T17:36:56.424Z,9.00
2022-10-14T17:42:03.476Z,10.64
2022-10-14T17:47:10.353Z,6.91
2022-10-14T17:52:17.346Z,12.62
2022-10-14T17:57:24.556Z,13.13
2022-10-14T18:02:31.223Z,11.42
2022-10-14T18:07:38.217Z,10.56
2022-10-14T18:12:47.854Z,9.61
2022-10-14T18:17:54.945Z,13.33
2022-10-14T18:23:01.929Z,9.99
2022-10-14T18:28:08.843Z,7.05
2022-10-14T18:33:15.777Z,8.18
2022-10-14T18:38:22.922Z,7.41
2022-10-14T18:43:29.909Z,8.91
2022-10-14T18:48:37.031Z,9.77
2022-10-14T18:53:43.947Z,5.84
2022-10-14T18:58:51.002Z,11.22
2022-10-14T19:03:57.844Z,11.22
2022-10-14T19:09:04.944Z,8.37
2022-10-14T19:14:11.864Z,9.57
2022-10-14T19:19:19.026Z,7.43
2022-10-14T19:24:25.959Z,8.18
2022-10-14T19:29:32.877Z,7.88
2022-10-14T19:34:42.621Z,14.00
2022-10-14T19:39:46.478Z,11.77
2022-10-14T19:44:53.397Z,7.40
2022-10-14T19:50:00.476Z,11.63
2022-10-14T19:55:07.439Z,9.01
2022-10-14T20:00:14.454Z,7.59
2022-10-14T20:05:21.367Z,9.99
2022-10-14T20:10:28.264Z,9.17
2022-10-14T20:15:35.144Z,12.95
2022-10-14T20:20:42.147Z,13.46
2022-10-14T20:25:49.035Z,12.55
2022-10-14T20:30:56.125Z,11.53
2022-10-14T20:36:03.063Z,8.88
2022-10-14T20:41:10.051Z,12.28
2022-10-14T20:46:17.055Z,11.95
2022-10-14T20:51:23.925Z,9.57
2022-10-14T20:56:31.107Z,12.55
2022-10-14T21:01:38.088Z,9.81
2022-10-14T21:06:45.085Z,10.31
2022-10-14T21:16:58.790Z,12.25
2022-10-14T21:22:05.714Z,10.32
2022-10-14T21:27:12.861Z,10.23
2022-10-14T21:32:20.221Z,8.73
2022-10-14T21:37:26.947Z,9.63
2022-10-14T21:42:33.846Z,11.27
2022-10-14T21:47:40.972Z,10.50
2022-10-14T21:52:48.068Z,9.09
2022-10-14T21:57:55.173Z,8.83
2022-10-14T22:03:02.090Z,9.06
2022-10-14T22:08:09.123Z,15.98
2022-10-14T22:13:16.042Z,14.72
2022-10-14T22:18:23.043Z,10.61
2022-10-14T22:23:29.990Z,13.11
2022-10-14T22:28:36.996Z,11.65
2022-10-14T22:33:43.878Z,16.78
2022-10-14T22:38:50.868Z,13.92
2022-10-14T22:43:57.809Z,12.21
2022-10-14T22:49:04.777Z,15.43
2022-10-14T22:54:11.687Z,10.34
2022-10-14T22:59:18.804Z,12.41
2022-10-14T23:04:25.731Z,14.64
2022-10-14T23:09:32.792Z,11.56
2022-10-14T23:14:39.707Z,12.13
2022-10-14T23:19:46.870Z,10.31
2022-10-14T23:24:53.791Z,12.60
2022-10-14T23:30:00.832Z,8.05
2022-10-14T23:35:07.731Z,12.99
2022-10-14T23:40:14.769Z,10.42
2022-10-14T23:45:21.691Z,12.29
2022-10-14T23:50:28.757Z,16.04
2022-10-14T23:55:35.630Z,10.71
